Dart — OUOV2 — position and weather

sailwx.info

Track history (hours):
 
Tides and Currents Weather Stations Pressure Air Temp Water Temp Dewpoint Dewpoint Depression Visibility Wind Speed Wind Dir Waves Ship Positions

Dart

Last reported at 2014-Dec-21 10:34 UTC. Time now 2014-Dec-23 00:49 UTC.
Position N 59°28' E 005°13'.

Length 66 m; draft 4.7 m.

Type: Tanker. MMSI: 219416000.

Date/timePositionNaut miles runAvg speedWind from/ knotsBaromVisibWave heightAir tempDewpointWater temp
2014-Dec-21 10:34N 59°28' E 005°13'3 3.1
2014-Dec-21 09:32N 59°25' E 005°14'0 0.0
2014-Dec-21 08:32N 59°25' E 005°14'0 0.1
2014-Dec-21 07:34N 59°25' E 005°14'1 1.3
2014-Dec-21 06:31N 59°24' E 005°16'0 0.0
2014-Dec-21 05:32N 59°24' E 005°16'0 0.0
2014-Dec-21 04:31N 59°24' E 005°16'0 0.0
2014-Dec-21 03:31N 59°24' E 005°16'0 0.0
2014-Dec-21 02:32N 59°24' E 005°16'0 0.0
2014-Dec-21 01:32N 59°24' E 005°16'0 0.0
2014-Dec-21 00:28N 59°24' E 005°16'0 0.0
2014-Dec-20 23:32N 59°24' E 005°16'0 0.0
2014-Dec-20 22:32N 59°24' E 005°16'0 0.0
2014-Dec-20 21:31N 59°24' E 005°16'0 0.0
2014-Dec-20 20:31N 59°24' E 005°16'0 0.0
2014-Dec-20 19:31N 59°24' E 005°16'0 0.0
2014-Dec-20 18:31N 59°24' E 005°16'0 0.0
2014-Dec-20 17:32N 59°24' E 005°16'0 0.0
2014-Dec-20 16:31N 59°24' E 005°16'1 0.9
2014-Dec-20 15:33N 59°24' E 005°15'7 7.1
2014-Dec-20 14:33N 59°18' E 005°20'9 9.1
2014-Dec-20 13:33N 59°09' E 005°23'8 7.6
2014-Dec-20 12:33N 59°03' E 005°32'7 7.5
2014-Dec-20 11:34N 58°56' E 005°35'0 0.2
2014-Dec-20 10:33N 58°56' E 005°35'0 0.0
2014-Dec-20 09:33N 58°56' E 005°35'0 0.0
2014-Dec-20 08:33N 58°56' E 005°35'0 0.0
2014-Dec-20 07:33N 58°56' E 005°35'0 0.0
2014-Dec-20 06:33N 58°56' E 005°35'0 0.0
2014-Dec-20 05:33N 58°56' E 005°35'0 0.0
2014-Dec-20 04:33N 58°56' E 005°35'0 0.0
2014-Dec-20 03:33N 58°56' E 005°35'0 0.0
2014-Dec-20 02:33N 58°56' E 005°35'0 0.0
2014-Dec-20 01:33N 58°56' E 005°35'0 0.0
2014-Dec-20 00:33N 58°56' E 005°35'0 0.0
2014-Dec-19 23:33N 58°56' E 005°35'0 0.0
2014-Dec-19 22:33N 58°56' E 005°35'0 0.1
2014-Dec-19 21:33N 58°56' E 005°36'0 0.0
2014-Dec-19 20:33N 58°56' E 005°36'0 0.0
2014-Dec-19 19:33N 58°56' E 005°36'0 0.0
2014-Dec-19 18:33N 58°56' E 005°36'0 0.0
2014-Dec-19 17:33N 58°56' E 005°36'0 0.0
2014-Dec-19 16:33N 58°56' E 005°36'0 0.0
2014-Dec-19 15:33N 58°56' E 005°36'0 0.1
2014-Dec-19 14:33N 58°56' E 005°35'0 0.0
2014-Dec-19 13:33N 58°56' E 005°35'0 0.0
2014-Dec-19 12:33N 58°56' E 005°35'0 0.0
2014-Dec-19 11:33N 58°56' E 005°35'0 0.0
2014-Dec-19 10:33N 58°56' E 005°35'0 0.1
2014-Dec-19 09:33N 58°56' E 005°36'8 7.6
2014-Dec-19 08:34N 59°03' E 005°32'9 8.5
2014-Dec-19 07:33N 59°09' E 005°21'9 9.2
2014-Dec-19 06:33N 59°18' E 005°20'7 6.9
2014-Dec-19 05:33N 59°25' E 005°14'0 0.0
2014-Dec-19 04:33N 59°25' E 005°14'0 0.0
2014-Dec-19 03:33N 59°25' E 005°14'7 6.8
2014-Dec-19 02:33N 59°19' E 005°20'9 9.4
2014-Dec-19 01:33N 59°09' E 005°22'7 7.4
2014-Dec-19 00:34N 59°05' E 005°33'6 5.6
2014-Dec-18 23:31N 58°60' E 005°40'0 0.0
2014-Dec-18 22:31N 58°60' E 005°40'0 0.0
2014-Dec-18 21:31N 58°60' E 005°40'3 3.1
2014-Dec-18 20:33N 59°02' E 005°45'9 8.6
2014-Dec-18 19:34N 58°53' E 005°45'0 0.1
2014-Dec-18 18:32N 58°53' E 005°45'0 0.0
2014-Dec-18 17:32N 58°53' E 005°45'0 0.0
2014-Dec-18 16:32N 58°53' E 005°45'0 0.0
2014-Dec-18 15:32N 58°53' E 005°45'0 0.0
2014-Dec-18 14:32N 58°53' E 005°45'0 0.0
2014-Dec-18 13:32N 58°53' E 005°45'0 0.0
2014-Dec-18 12:32N 58°53' E 005°45'0 0.0
2014-Dec-18 11:32N 58°53' E 005°45'0 0.0
2014-Dec-18 10:32N 58°53' E 005°45'0 0.0
2014-Dec-18 09:34N 58°53' E 005°45'4 4.4
2014-Dec-18 08:34N 58°58' E 005°48'6 5.8
2014-Dec-18 07:33N 59°01' E 005°38'3 3.2
2014-Dec-18 06:33N 59°03' E 005°34'9 8.6
2014-Dec-18 05:34N 59°09' E 005°22'9 8.6
2014-Dec-18 04:33N 59°18' E 005°20'9 8.6
2014-Dec-18 03:33N 59°26' E 005°14'  
2014-Dec-13 10:32N 59°30' E 005°13'6 6.4
2014-Dec-13 09:34N 59°24' E 005°16'0 0.2
2014-Dec-13 08:34N 59°24' E 005°16'0 0.1
2014-Dec-13 07:33N 59°24' E 005°16'2 1.8
2014-Dec-13 06:33N 59°22' E 005°18'8 8.1
2014-Dec-13 05:33N 59°14' E 005°21'7 7.2
2014-Dec-13 04:33N 59°08' E 005°27'8 7.5
2014-Dec-13 03:33N 59°02' E 005°37'3 2.9
2014-Dec-13 02:33N 58°60' E 005°40'0 0.0
2014-Dec-13 01:34N 58°60' E 005°40'0 0.0
2014-Dec-13 00:33N 58°60' E 005°40'3 3.5
2014-Dec-12 23:34N 59°02' E 005°35'7 6.5
2014-Dec-12 22:31N 58°56' E 005°36'0 0.0
2014-Dec-12 21:31N 58°56' E 005°36'0 0.0
2014-Dec-12 20:31N 58°56' E 005°36'0 0.2
2014-Dec-12 19:33N 58°56' E 005°35'7 6.6
2014-Dec-12 18:33N 58°50' E 005°29'6 6.2
2014-Dec-12 17:31N 58°43' E 005°27'6 5.4
2014-Dec-12 16:19N 58°38' E 005°32'4 5.2
2014-Dec-12 15:30N 58°34' E 005°36'5 5.7
2014-Dec-12 14:33N 58°29' E 005°42'8 7.5
2014-Dec-12 13:33N 58°24' E 005°51'8 7.7
2014-Dec-12 12:33N 58°18' E 006°02'9 8.5
2014-Dec-12 11:34N 58°12' E 006°13'8 8.1
2014-Dec-12 10:33N 58°07' E 006°24'68 5.2
2014-Dec-11 21:31N 58°06' E 008°34'6 5.8
2014-Dec-11 20:33N 58°08' E 008°44'61 6.6
2014-Dec-11 11:14N 57°50' E 010°35'  
Track history (hours):
 
Tides and Currents Weather Stations Pressure Air Temp Water Temp Dewpoint Dewpoint Depression Visibility Wind Speed Wind Dir Waves Ship Positions

Dart

Last reported at 2014-Dec-21 10:34 UTC. Time now 2014-Dec-23 00:49 UTC.
Position N 59°28' E 005°13'.

Length 66 m; draft 4.7 m.

Type: Tanker. MMSI: 219416000.

Date/timePositionNaut miles runAvg speedWind from/ knotsBaromVisibWave heightAir tempDewpointWater temp
2014-Dec-21 10:34N 59°28' E 005°13'3 3.1
2014-Dec-21 09:32N 59°25' E 005°14'0 0.0
2014-Dec-21 08:32N 59°25' E 005°14'0 0.1
2014-Dec-21 07:34N 59°25' E 005°14'1 1.3
2014-Dec-21 06:31N 59°24' E 005°16'0 0.0
2014-Dec-21 05:32N 59°24' E 005°16'0 0.0
2014-Dec-21 04:31N 59°24' E 005°16'0 0.0
2014-Dec-21 03:31N 59°24' E 005°16'0 0.0
2014-Dec-21 02:32N 59°24' E 005°16'0 0.0
2014-Dec-21 01:32N 59°24' E 005°16'0 0.0
2014-Dec-21 00:28N 59°24' E 005°16'0 0.0
2014-Dec-20 23:32N 59°24' E 005°16'0 0.0
2014-Dec-20 22:32N 59°24' E 005°16'0 0.0
2014-Dec-20 21:31N 59°24' E 005°16'0 0.0
2014-Dec-20 20:31N 59°24' E 005°16'0 0.0
2014-Dec-20 19:31N 59°24' E 005°16'0 0.0
2014-Dec-20 18:31N 59°24' E 005°16'0 0.0
2014-Dec-20 17:32N 59°24' E 005°16'0 0.0
2014-Dec-20 16:31N 59°24' E 005°16'1 0.9
2014-Dec-20 15:33N 59°24' E 005°15'7 7.1
2014-Dec-20 14:33N 59°18' E 005°20'9 9.1
2014-Dec-20 13:33N 59°09' E 005°23'8 7.6
2014-Dec-20 12:33N 59°03' E 005°32'7 7.5
2014-Dec-20 11:34N 58°56' E 005°35'0 0.2
2014-Dec-20 10:33N 58°56' E 005°35'0 0.0
2014-Dec-20 09:33N 58°56' E 005°35'0 0.0
2014-Dec-20 08:33N 58°56' E 005°35'0 0.0
2014-Dec-20 07:33N 58°56' E 005°35'0 0.0
2014-Dec-20 06:33N 58°56' E 005°35'0 0.0
2014-Dec-20 05:33N 58°56' E 005°35'0 0.0
2014-Dec-20 04:33N 58°56' E 005°35'0 0.0
2014-Dec-20 03:33N 58°56' E 005°35'0 0.0
2014-Dec-20 02:33N 58°56' E 005°35'0 0.0
2014-Dec-20 01:33N 58°56' E 005°35'0 0.0
2014-Dec-20 00:33N 58°56' E 005°35'0 0.0
2014-Dec-19 23:33N 58°56' E 005°35'0 0.0
2014-Dec-19 22:33N 58°56' E 005°35'0 0.1
2014-Dec-19 21:33N 58°56' E 005°36'0 0.0
2014-Dec-19 20:33N 58°56' E 005°36'0 0.0
2014-Dec-19 19:33N 58°56' E 005°36'0 0.0
2014-Dec-19 18:33N 58°56' E 005°36'0 0.0
2014-Dec-19 17:33N 58°56' E 005°36'0 0.0
2014-Dec-19 16:33N 58°56' E 005°36'0 0.0
2014-Dec-19 15:33N 58°56' E 005°36'0 0.1
2014-Dec-19 14:33N 58°56' E 005°35'0 0.0
2014-Dec-19 13:33N 58°56' E 005°35'0 0.0
2014-Dec-19 12:33N 58°56' E 005°35'0 0.0
2014-Dec-19 11:33N 58°56' E 005°35'0 0.0
2014-Dec-19 10:33N 58°56' E 005°35'0 0.1
2014-Dec-19 09:33N 58°56' E 005°36'8 7.6
2014-Dec-19 08:34N 59°03' E 005°32'9 8.5
2014-Dec-19 07:33N 59°09' E 005°21'9 9.2
2014-Dec-19 06:33N 59°18' E 005°20'7 6.9
2014-Dec-19 05:33N 59°25' E 005°14'0 0.0
2014-Dec-19 04:33N 59°25' E 005°14'0 0.0
2014-Dec-19 03:33N 59°25' E 005°14'7 6.8
2014-Dec-19 02:33N 59°19' E 005°20'9 9.4
2014-Dec-19 01:33N 59°09' E 005°22'7 7.4
2014-Dec-19 00:34N 59°05' E 005°33'6 5.6
2014-Dec-18 23:31N 58°60' E 005°40'0 0.0
2014-Dec-18 22:31N 58°60' E 005°40'0 0.0
2014-Dec-18 21:31N 58°60' E 005°40'3 3.1
2014-Dec-18 20:33N 59°02' E 005°45'9 8.6
2014-Dec-18 19:34N 58°53' E 005°45'0 0.1
2014-Dec-18 18:32N 58°53' E 005°45'0 0.0
2014-Dec-18 17:32N 58°53' E 005°45'0 0.0
2014-Dec-18 16:32N 58°53' E 005°45'0 0.0
2014-Dec-18 15:32N 58°53' E 005°45'0 0.0
2014-Dec-18 14:32N 58°53' E 005°45'0 0.0
2014-Dec-18 13:32N 58°53' E 005°45'0 0.0
2014-Dec-18 12:32N 58°53' E 005°45'0 0.0
2014-Dec-18 11:32N 58°53' E 005°45'0 0.0
2014-Dec-18 10:32N 58°53' E 005°45'0 0.0
2014-Dec-18 09:34N 58°53' E 005°45'4 4.4
2014-Dec-18 08:34N 58°58' E 005°48'6 5.8
2014-Dec-18 07:33N 59°01' E 005°38'3 3.2
2014-Dec-18 06:33N 59°03' E 005°34'9 8.6
2014-Dec-18 05:34N 59°09' E 005°22'9 8.6
2014-Dec-18 04:33N 59°18' E 005°20'9 8.6
2014-Dec-18 03:33N 59°26' E 005°14'  
2014-Dec-13 10:32N 59°30' E 005°13'6 6.4
2014-Dec-13 09:34N 59°24' E 005°16'0 0.2
2014-Dec-13 08:34N 59°24' E 005°16'0 0.1
2014-Dec-13 07:33N 59°24' E 005°16'2 1.8
2014-Dec-13 06:33N 59°22' E 005°18'8 8.1
2014-Dec-13 05:33N 59°14' E 005°21'7 7.2
2014-Dec-13 04:33N 59°08' E 005°27'8 7.5
2014-Dec-13 03:33N 59°02' E 005°37'3 2.9
2014-Dec-13 02:33N 58°60' E 005°40'0 0.0
2014-Dec-13 01:34N 58°60' E 005°40'0 0.0
2014-Dec-13 00:33N 58°60' E 005°40'3 3.5
2014-Dec-12 23:34N 59°02' E 005°35'7 6.5
2014-Dec-12 22:31N 58°56' E 005°36'0 0.0
2014-Dec-12 21:31N 58°56' E 005°36'0 0.0
2014-Dec-12 20:31N 58°56' E 005°36'0 0.2
2014-Dec-12 19:33N 58°56' E 005°35'7 6.6
2014-Dec-12 18:33N 58°50' E 005°29'6 6.2
2014-Dec-12 17:31N 58°43' E 005°27'6 5.4
2014-Dec-12 16:19N 58°38' E 005°32'4 5.2
2014-Dec-12 15:30N 58°34' E 005°36'5 5.7
2014-Dec-12 14:33N 58°29' E 005°42'8 7.5
2014-Dec-12 13:33N 58°24' E 005°51'8 7.7
2014-Dec-12 12:33N 58°18' E 006°02'9 8.5
2014-Dec-12 11:34N 58°12' E 006°13'8 8.1
2014-Dec-12 10:33N 58°07' E 006°24'68 5.2
2014-Dec-11 21:31N 58°06' E 008°34'6 5.8
2014-Dec-11 20:33N 58°08' E 008°44'61 6.6
2014-Dec-11 11:14N 57°50' E 010°35'  

Dump ship's entire track history